sensor_id;sensor_type;location;lat;lon;timestamp;pressure;altitude;pressure_sealevel;temperature;humidity
43217;BME280;71549;42.686;23.300;2023-10-09T00:01:24;95180.13;;;24.57;32.08
43217;BME280;71549;42.686;23.300;2023-10-09T00:03:24;95181.63;;;24.55;31.86
43217;BME280;71549;42.686;23.300;2023-10-09T00:05:28;95213.63;;;24.81;31.90
43217;BME280;71549;42.686;23.300;2023-10-09T00:07:40;95207.41;;;24.80;31.82
43217;BME280;71549;42.686;23.300;2023-10-09T00:09:40;95217.56;;;24.83;31.90
43217;BME280;71549;42.686;23.300;2023-10-09T00:11:46;95200.25;;;24.72;31.75
43217;BME280;71549;42.686;23.300;2023-10-09T00:13:48;95227.34;;;24.88;31.72
43217;BME280;71549;42.686;23.300;2023-10-09T00:15:52;95214.50;;;24.85;31.83
43217;BME280;71549;42.686;23.300;2023-10-09T00:17:57;95216.78;;;24.83;31.97
43217;BME280;71549;42.686;23.300;2023-10-09T00:19:58;95210.56;;;24.82;32.00
43217;BME280;71549;42.686;23.300;2023-10-09T00:22:18;95206.53;;;24.76;31.77
43217;BME280;71549;42.686;23.300;2023-10-09T00:24:24;95007.22;;;23.36;32.09
43217;BME280;71549;42.686;23.300;2023-10-09T00:26:25;95200.25;;;24.72;31.95
43217;BME280;71549;42.686;23.300;2023-10-09T00:28:26;95206.19;;;24.78;31.93
43217;BME280;71549;42.686;23.300;2023-10-09T00:30:27;95187.50;;;24.73;31.75
43217;BME280;71549;42.686;23.300;2023-10-09T00:32:30;95213.38;;;24.86;31.79
43217;BME280;71549;42.686;23.300;2023-10-09T00:34:33;95190.81;;;24.66;31.71
43217;BME280;71549;42.686;23.300;2023-10-09T00:36:39;95204.34;;;24.66;31.88
43217;BME280;71549;42.686;23.300;2023-10-09T00:38:50;95209.84;;;24.70;31.75
43217;BME280;71549;42.686;23.300;2023-10-09T00:40:52;95217.72;;;24.75;31.75
43217;BME280;71549;42.686;23.300;2023-10-09T00:43:02;95091.59;;;23.98;31.57
43217;BME280;71549;42.686;23.300;2023-10-09T00:45:12;95199.47;;;24.72;31.53
43217;BME280;71549;42.686;23.300;2023-10-09T00:47:24;95189.34;;;24.69;31.91
43217;BME280;71549;42.686;23.300;2023-10-09T00:49:34;95201.06;;;24.73;31.45
43217;BME280;71549;42.686;23.300;2023-10-09T00:51:35;95202.00;;;24.64;31.78
43217;BME280;71549;42.686;23.300;2023-10-09T00:53:42;95204.41;;;24.54;31.99
43217;BME280;71549;42.686;23.300;2023-10-09T00:55:42;95211.56;;;24.62;31.90
43217;BME280;71549;42.686;23.300;2023-10-09T00:57:47;95195.16;;;24.55;31.92
43217;BME280;71549;42.686;23.300;2023-10-09T00:59:54;95223.22;;;24.62;31.63
43217;BME280;71549;42.686;23.300;2023-10-09T01:01:59;95202.69;;;24.49;31.55
43217;BME280;71549;42.686;23.300;2023-10-09T01:04:05;95215.66;;;24.56;31.71
43217;BME280;71549;42.686;23.300;2023-10-09T01:06:15;95125.06;;;23.93;31.51
43217;BME280;71549;42.686;23.300;2023-10-09T01:08:20;95234.81;;;24.63;31.53
43217;BME280;71549;42.686;23.300;2023-10-09T01:10:44;95240.41;;;24.70;31.55
43217;BME280;71549;42.686;23.300;2023-10-09T01:12:51;95242.78;;;24.72;31.55
43217;BME280;71549;42.686;23.300;2023-10-09T01:14:55;95238.41;;;24.67;31.58
43217;BME280;71549;42.686;23.300;2023-10-09T01:16:56;95254.19;;;24.65;31.23
43217;BME280;71549;42.686;23.300;2023-10-09T01:18:57;95248.09;;;24.68;31.47
43217;BME280;71549;42.686;23.300;2023-10-09T01:20:57;95249.81;;;24.60;31.24
43217;BME280;71549;42.686;23.300;2023-10-09T01:23:01;95260.09;;;24.55;31.24
43217;BME280;71549;42.686;23.300;2023-10-09T01:25:02;95257.16;;;24.47;31.16
43217;BME280;71549;42.686;23.300;2023-10-09T01:27:06;95257.13;;;24.60;31.33
43217;BME280;71549;42.686;23.300;2023-10-09T01:29:19;95268.78;;;24.60;31.05
43217;BME280;71549;42.686;23.300;2023-10-09T01:31:20;95286.38;;;24.54;30.83
43217;BME280;71549;42.686;23.300;2023-10-09T01:33:22;95284.31;;;24.63;31.04
43217;BME280;71549;42.686;23.300;2023-10-09T01:35:24;95290.31;;;24.57;31.00
43217;BME280;71549;42.686;23.300;2023-10-09T01:37:28;95287.63;;;24.57;30.92
43217;BME280;71549;42.686;23.300;2023-10-09T01:39:31;95289.28;;;24.49;31.05
43217;BME280;71549;42.686;23.300;2023-10-09T01:41:41;95286.94;;;24.47;31.08
43217;BME280;71549;42.686;23.300;2023-10-09T01:43:47;95254.53;;;24.23;31.04
43217;BME280;71549;42.686;23.300;2023-10-09T01:45:51;95280.88;;;24.38;31.11
43217;BME280;71549;42.686;23.300;2023-10-09T01:47:53;95274.63;;;24.22;31.04
43217;BME280;71549;42.686;23.300;2023-10-09T01:49:56;95297.31;;;24.45;31.04
43217;BME280;71549;42.686;23.300;2023-10-09T01:51:58;95304.09;;;24.52;30.92
43217;BME280;71549;42.686;23.300;2023-10-09T01:54:02;95289.78;;;24.39;30.71
43217;BME280;71549;42.686;23.300;2023-10-09T01:56:12;95301.94;;;24.45;30.94
43217;BME280;71549;42.686;23.300;2023-10-09T01:58:15;95285.28;;;24.31;30.50
43217;BME280;71549;42.686;23.300;2023-10-09T02:00:22;95286.63;;;24.37;30.53
43217;BME280;71549;42.686;23.300;2023-10-09T02:02:24;95201.78;;;23.76;30.98
43217;BME280;71549;42.686;23.300;2023-10-09T02:04:33;95328.00;;;24.50;30.88
43217;BME280;71549;42.686;23.300;2023-10-09T02:06:35;95337.69;;;24.51;30.80
43217;BME280;71549;42.686;23.300;2023-10-09T02:08:38;95333.41;;;24.50;30.80
43217;BME280;71549;42.686;23.300;2023-10-09T02:10:38;95317.19;;;24.25;30.54
43217;BME280;71549;42.686;23.300;2023-10-09T02:12:48;95310.97;;;24.37;30.73
43217;BME280;71549;42.686;23.300;2023-10-09T02:14:58;95280.25;;;24.17;30.77
43217;BME280;71549;42.686;23.300;2023-10-09T02:16:58;95319.88;;;24.50;30.53
43217;BME280;71549;42.686;23.300;2023-10-09T02:19:17;95310.16;;;24.49;30.40
43217;BME280;71549;42.686;23.300;2023-10-09T02:21:34;95287.31;;;24.34;30.51
43217;BME280;71549;42.686;23.300;2023-10-09T02:23:40;95293.81;;;24.45;30.44
43217;BME280;71549;42.686;23.300;2023-10-09T02:25:50;95329.53;;;24.63;30.20
43217;BME280;71549;42.686;23.300;2023-10-09T02:27:53;95327.50;;;24.60;30.22
43217;BME280;71549;42.686;23.300;2023-10-09T02:29:54;95333.97;;;24.43;30.36
43217;BME280;71549;42.686;23.300;2023-10-09T02:31:58;95313.50;;;24.17;30.54
43217;BME280;71549;42.686;23.300;2023-10-09T02:34:13;95334.69;;;24.27;30.41
43217;BME280;71549;42.686;23.300;2023-10-09T02:36:16;95358.88;;;24.49;30.52
43217;BME280;71549;42.686;23.300;2023-10-09T02:38:17;95364.44;;;24.52;30.46
43217;BME280;71549;42.686;23.300;2023-10-09T02:40:18;95357.97;;;24.57;30.33
43217;BME280;71549;42.686;23.300;2023-10-09T02:42:23;95370.94;;;24.63;30.41
43217;BME280;71549;42.686;23.300;2023-10-09T02:44:26;95353.00;;;24.59;30.29
43217;BME280;71549;42.686;23.300;2023-10-09T02:46:27;95368.06;;;24.72;30.32
43217;BME280;71549;42.686;23.300;2023-10-09T02:48:31;95363.94;;;24.62;30.06
43217;BME280;71549;42.686;23.300;2023-10-09T02:50:36;95322.06;;;24.32;30.02
43217;BME280;71549;42.686;23.300;2023-10-09T02:52:38;95352.69;;;24.48;30.01
43217;BME280;71549;42.686;23.300;2023-10-09T02:54:41;95365.06;;;24.49;29.98
43217;BME280;71549;42.686;23.300;2023-10-09T02:56:42;95364.06;;;24.54;30.39
43217;BME280;71549;42.686;23.300;2023-10-09T02:58:43;95367.31;;;24.47;30.39
43217;BME280;71549;42.686;23.300;2023-10-09T03:00:44;95361.34;;;24.54;29.96
43217;BME280;71549;42.686;23.300;2023-10-09T03:02:45;95363.41;;;24.57;30.09
43217;BME280;71549;42.686;23.300;2023-10-09T03:04:49;95359.66;;;24.61;29.97
43217;BME280;71549;42.686;23.300;2023-10-09T03:06:50;95373.97;;;24.62;29.81
43217;BME280;71549;42.686;23.300;2023-10-09T03:08:51;95378.94;;;24.60;30.08
43217;BME280;71549;42.686;23.300;2023-10-09T03:10:51;95379.97;;;24.55;29.76
43217;BME280;71549;42.686;23.300;2023-10-09T03:12:52;95358.19;;;24.39;30.02
43217;BME280;71549;42.686;23.300;2023-10-09T03:14:53;95384.00;;;24.61;30.02
43217;BME280;71549;42.686;23.300;2023-10-09T03:16:55;95393.72;;;24.62;29.76
43217;BME280;71549;42.686;23.300;2023-10-09T03:18:59;95398.00;;;24.63;29.97
43217;BME280;71549;42.686;23.300;2023-10-09T03:21:00;95399.13;;;24.62;29.90
43217;BME280;71549;42.686;23.300;2023-10-09T03:23:00;95373.00;;;24.54;29.86
43217;BME280;71549;42.686;23.300;2023-10-09T03:25:01;95396.19;;;24.67;29.94
43217;BME280;71549;42.686;23.300;2023-10-09T03:27:04;95372.09;;;24.50;29.71
43217;BME280;71549;42.686;23.300;2023-10-09T03:29:05;95401.03;;;24.62;29.68
43217;BME280;71549;42.686;23.300;2023-10-09T03:31:11;95381.00;;;24.51;29.78
43217;BME280;71549;42.686;23.300;2023-10-09T03:33:11;95396.44;;;24.62;29.69
43217;BME280;71549;42.686;23.300;2023-10-09T03:35:13;95381.44;;;24.40;29.75
43217;BME280;71549;42.686;23.300;2023-10-09T03:37:17;95414.56;;;24.62;29.40
43217;BME280;71549;42.686;23.300;2023-10-09T03:39:34;95413.56;;;24.66;29.67
43217;BME280;71549;42.686;23.300;2023-10-09T03:41:47;95409.59;;;24.64;29.39
43217;BME280;71549;42.686;23.300;2023-10-09T03:43:47;95415.47;;;24.54;28.95
43217;BME280;71549;42.686;23.300;2023-10-09T03:45:48;95293.22;;;23.62;29.65
43217;BME280;71549;42.686;23.300;2023-10-09T03:47:57;95384.72;;;24.34;29.53
43217;BME280;71549;42.686;23.300;2023-10-09T03:50:01;95376.94;;;24.32;29.07
43217;BME280;71549;42.686;23.300;2023-10-09T03:52:21;95415.16;;;24.55;29.30
43217;BME280;71549;42.686;23.300;2023-10-09T03:54:25;95421.47;;;24.59;29.34
43217;BME280;71549;42.686;23.300;2023-10-09T03:56:30;95418.88;;;24.63;29.29
43217;BME280;71549;42.686;23.300;2023-10-09T03:58:32;95430.47;;;24.63;29.23
43217;BME280;71549;42.686;23.300;2023-10-09T04:00:34;95396.19;;;24.43;29.07
43217;BME280;71549;42.686;23.300;2023-10-09T04:02:45;95426.19;;;24.62;29.21
43217;BME280;71549;42.686;23.300;2023-10-09T04:04:45;95418.16;;;24.66;29.19
43217;BME280;71549;42.686;23.300;2023-10-09T04:06:47;95411.06;;;24.61;29.15
43217;BME280;71549;42.686;23.300;2023-10-09T04:08:48;95419.31;;;24.65;29.28
43217;BME280;71549;42.686;23.300;2023-10-09T04:10:51;95421.78;;;24.70;29.11
43217;BME280;71549;42.686;23.300;2023-10-09T04:12:51;95404.44;;;24.59;29.01
43217;BME280;71549;42.686;23.300;2023-10-09T04:14:53;95373.19;;;24.37;28.82
43217;BME280;71549;42.686;23.300;2023-10-09T04:16:53;95332.00;;;24.15;28.87
43217;BME280;71549;42.686;23.300;2023-10-09T04:19:26;95425.38;;;24.74;28.77
43217;BME280;71549;42.686;23.300;2023-10-09T04:21:27;95415.69;;;24.73;28.79
43217;BME280;71549;42.686;23.300;2023-10-09T04:23:37;95424.81;;;24.81;28.89
43217;BME280;71549;42.686;23.300;2023-10-09T04:25:57;95414.22;;;24.76;28.83
43217;BME280;71549;42.686;23.300;2023-10-09T04:28:00;95430.69;;;24.83;28.94
43217;BME280;71549;42.686;23.300;2023-10-09T04:30:10;95432.69;;;24.86;28.71
43217;BME280;71549;42.686;23.300;2023-10-09T04:32:15;95418.50;;;24.77;28.66
43217;BME280;71549;42.686;23.300;2023-10-09T04:34:16;95410.31;;;24.61;28.61
43217;BME280;71549;42.686;23.300;2023-10-09T04:36:22;95429.66;;;24.75;28.51
43217;BME280;71549;42.686;23.300;2023-10-09T04:38:26;95424.03;;;24.68;28.53
43217;BME280;71549;42.686;23.300;2023-10-09T04:40:27;95409.50;;;24.60;28.19
43217;BME280;71549;42.686;23.300;2023-10-09T04:42:46;95353.38;;;24.20;28.46
43217;BME280;71549;42.686;23.300;2023-10-09T04:44:58;95442.44;;;24.75;28.41
43217;BME280;71549;42.686;23.300;2023-10-09T04:47:04;95445.56;;;24.77;28.46
43217;BME280;71549;42.686;23.300;2023-10-09T04:49:11;95441.16;;;24.72;28.13
43217;BME280;71549;42.686;23.300;2023-10-09T04:51:26;95387.75;;;24.32;28.19
43217;BME280;71549;42.686;23.300;2023-10-09T04:53:36;95452.56;;;24.65;28.14
43217;BME280;71549;42.686;23.300;2023-10-09T04:55:44;95440.72;;;24.70;28.16
43217;BME280;71549;42.686;23.300;2023-10-09T04:57:54;95434.97;;;24.72;28.21
43217;BME280;71549;42.686;23.300;2023-10-09T05:00:00;95433.41;;;24.71;28.20
43217;BME280;71549;42.686;23.300;2023-10-09T05:02:04;95434.06;;;24.67;28.21
43217;BME280;71549;42.686;23.300;2023-10-09T05:04:06;95449.28;;;24.72;28.03
43217;BME280;71549;42.686;23.300;2023-10-09T05:06:15;95452.00;;;24.72;27.65
43217;BME280;71549;42.686;23.300;2023-10-09T05:08:42;95437.38;;;24.61;27.68
43217;BME280;71549;42.686;23.300;2023-10-09T05:10:46;95453.59;;;24.73;27.82
43217;BME280;71549;42.686;23.300;2023-10-09T05:12:58;95453.81;;;24.68;27.56
43217;BME280;71549;42.686;23.300;2023-10-09T05:14:58;95457.19;;;24.77;27.68
43217;BME280;71549;42.686;23.300;2023-10-09T05:17:09;95460.22;;;24.76;27.48
43217;BME280;71549;42.686;23.300;2023-10-09T05:19:15;95460.22;;;24.76;27.53
43217;BME280;71549;42.686;23.300;2023-10-09T05:21:42;95463.72;;;24.76;27.55
43217;BME280;71549;42.686;23.300;2023-10-09T05:23:42;95459.00;;;24.73;27.54
43217;BME280;71549;42.686;23.300;2023-10-09T05:25:49;95465.19;;;24.74;27.27
43217;BME280;71549;42.686;23.300;2023-10-09T05:27:59;95422.81;;;24.41;27.29
43217;BME280;71549;42.686;23.300;2023-10-09T05:30:19;95466.22;;;24.69;26.98
43217;BME280;71549;42.686;23.300;2023-10-09T05:32:25;95483.81;;;24.75;27.03
43217;BME280;71549;42.686;23.300;2023-10-09T05:34:36;95489.34;;;24.66;26.43
43217;BME280;71549;42.686;23.300;2023-10-09T05:36:55;95477.41;;;24.55;26.87
43217;BME280;71549;42.686;23.300;2023-10-09T05:39:11;95494.41;;;24.68;26.93
43217;BME280;71549;42.686;23.300;2023-10-09T05:41:18;95393.50;;;24.06;26.83
43217;BME280;71549;42.686;23.300;2023-10-09T05:43:45;95492.50;;;24.69;26.93
43217;BME280;71549;42.686;23.300;2023-10-09T05:46:04;95500.72;;;24.72;26.79
43217;BME280;71549;42.686;23.300;2023-10-09T05:48:09;95501.88;;;24.71;26.83
43217;BME280;71549;42.686;23.300;2023-10-09T05:50:30;95512.00;;;24.74;26.70
43217;BME280;71549;42.686;23.300;2023-10-09T05:52:50;95520.25;;;24.78;26.88
43217;BME280;71549;42.686;23.300;2023-10-09T05:54:53;95527.00;;;24.72;27.01
43217;BME280;71549;42.686;23.300;2023-10-09T05:57:14;95532.22;;;24.64;26.75
43217;BME280;71549;42.686;23.300;2023-10-09T05:59:52;95506.81;;;24.44;27.06
43217;BME280;71549;42.686;23.300;2023-10-09T06:02:11;95530.63;;;24.63;27.07
43217;BME280;71549;42.686;23.300;2023-10-09T06:04:38;95531.75;;;24.62;27.01
43217;BME280;71549;42.686;23.300;2023-10-09T06:06:54;95528.50;;;24.57;26.63
43217;BME280;71549;42.686;23.300;2023-10-09T06:09:04;95537.06;;;24.59;27.47
43217;BME280;71549;42.686;23.300;2023-10-09T06:11:14;95529.34;;;24.36;26.43
43217;BME280;71549;42.686;23.300;2023-10-09T06:13:33;95509.25;;;24.25;27.42
43217;BME280;71549;42.686;23.300;2023-10-09T06:15:48;95515.34;;;24.22;26.06
43217;BME280;71549;42.686;23.300;2023-10-09T06:17:48;95520.97;;;24.17;27.63
43217;BME280;71549;42.686;23.300;2023-10-09T06:19:51;95533.06;;;24.19;26.10
43217;BME280;71549;42.686;23.300;2023-10-09T06:21:59;95424.41;;;23.26;26.37
43217;BME280;71549;42.686;23.300;2023-10-09T06:24:12;95537.09;;;24.13;26.96
43217;BME280;71549;42.686;23.300;2023-10-09T06:26:16;95496.28;;;23.73;25.84
43217;BME280;71549;42.686;23.300;2023-10-09T06:28:26;95538.28;;;23.91;26.85
43217;BME280;71549;42.686;23.300;2023-10-09T06:30:34;95561.75;;;24.12;26.36
43217;BME280;71549;42.686;23.300;2023-10-09T06:32:44;95558.97;;;24.20;27.37
43217;BME280;71549;42.686;23.300;2023-10-09T06:34:59;95549.78;;;24.00;26.67
43217;BME280;71549;42.686;23.300;2023-10-09T06:37:21;95528.03;;;23.97;27.30
43217;BME280;71549;42.686;23.300;2023-10-09T06:39:24;95537.44;;;24.12;26.97
43217;BME280;71549;42.686;23.300;2023-10-09T06:41:44;95541.50;;;24.18;27.49
43217;BME280;71549;42.686;23.300;2023-10-09T06:43:46;95500.56;;;24.07;27.04
43217;BME280;71549;42.686;23.300;2023-10-09T06:45:55;95528.31;;;24.29;27.03
43217;BME280;71549;42.686;23.300;2023-10-09T06:47:58;95539.94;;;24.41;27.02
43217;BME280;71549;42.686;23.300;2023-10-09T06:50:11;95531.94;;;24.33;27.05
43217;BME280;71549;42.686;23.300;2023-10-09T06:52:20;95530.13;;;24.37;27.11
43217;BME280;71549;42.686;23.300;2023-10-09T06:54:41;95534.91;;;24.52;27.26
43217;BME280;71549;42.686;23.300;2023-10-09T06:56:49;95568.75;;;24.71;27.17
43217;BME280;71549;42.686;23.300;2023-10-09T06:58:52;95552.97;;;24.73;27.08
43217;BME280;71549;42.686;23.300;2023-10-09T07:00:58;95553.41;;;24.75;27.23
43217;BME280;71549;42.686;23.300;2023-10-09T07:02:58;95552.72;;;24.78;26.96
43217;BME280;71549;42.686;23.300;2023-10-09T07:05:05;95523.84;;;24.57;26.66
43217;BME280;71549;42.686;23.300;2023-10-09T07:07:11;95553.50;;;24.78;26.96
43217;BME280;71549;42.686;23.300;2023-10-09T07:09:17;95528.59;;;24.60;27.06
43217;BME280;71549;42.686;23.300;2023-10-09T07:11:21;95568.19;;;24.90;27.04
43217;BME280;71549;42.686;23.300;2023-10-09T07:13:27;95559.50;;;24.96;27.00
43217;BME280;71549;42.686;23.300;2023-10-09T07:15:28;95564.00;;;24.92;26.70
43217;BME280;71549;42.686;23.300;2023-10-09T07:17:47;95571.34;;;24.92;26.78
43217;BME280;71549;42.686;23.300;2023-10-09T07:19:49;95559.03;;;24.94;27.01
43217;BME280;71549;42.686;23.300;2023-10-09T07:21:49;95558.59;;;24.92;26.84
43217;BME280;71549;42.686;23.300;2023-10-09T07:23:55;95562.09;;;24.93;26.79
43217;BME280;71549;42.686;23.300;2023-10-09T07:26:04;95571.00;;;24.93;26.96
43217;BME280;71549;42.686;23.300;2023-10-09T07:28:23;95549.25;;;24.77;27.29
43217;BME280;71549;42.686;23.300;2023-10-09T07:30:36;95534.81;;;24.61;27.41
43217;BME280;71549;42.686;23.300;2023-10-09T07:32:37;95566.50;;;24.85;27.50
43217;BME280;71549;42.686;23.300;2023-10-09T07:34:46;95545.75;;;24.77;27.37
43217;BME280;71549;42.686;23.300;2023-10-09T07:36:59;95546.53;;;24.77;27.43
43217;BME280;71549;42.686;23.300;2023-10-09T07:39:04;95556.22;;;24.91;27.31
43217;BME280;71549;42.686;23.300;2023-10-09T07:41:15;95548.53;;;24.93;27.50
43217;BME280;71549;42.686;23.300;2023-10-09T07:43:16;95560.16;;;25.05;27.16
43217;BME280;71549;42.686;23.300;2023-10-09T07:45:16;95567.72;;;25.12;27.28
43217;BME280;71549;42.686;23.300;2023-10-09T07:47:20;95547.63;;;25.13;27.37
43217;BME280;71549;42.686;23.300;2023-10-09T07:49:40;95553.06;;;25.01;27.16
43217;BME280;71549;42.686;23.300;2023-10-09T07:51:43;95562.53;;;25.07;26.77
43217;BME280;71549;42.686;23.300;2023-10-09T07:53:45;95538.28;;;24.98;26.88
43217;BME280;71549;42.686;23.300;2023-10-09T07:55:46;95571.66;;;25.15;26.84
43217;BME280;71549;42.686;23.300;2023-10-09T07:58:06;95540.78;;;24.91;26.63
43217;BME280;71549;42.686;23.300;2023-10-09T08:00:13;95569.75;;;25.15;26.66
43217;BME280;71549;42.686;23.300;2023-10-09T08:02:33;95575.63;;;25.17;26.37
43217;BME280;71549;42.686;23.300;2023-10-09T08:04:34;95568.94;;;25.15;26.25
43217;BME280;71549;42.686;23.300;2023-10-09T08:06:38;95561.41;;;25.08;26.40
43217;BME280;71549;42.686;23.300;2023-10-09T08:08:38;95573.94;;;25.25;26.19
43217;BME280;71549;42.686;23.300;2023-10-09T08:10:39;95552.47;;;25.20;26.47
43217;BME280;71549;42.686;23.300;2023-10-09T08:12:58;95510.28;;;24.94;26.34
43217;BME280;71549;42.686;23.300;2023-10-09T08:14:59;95573.22;;;25.40;26.69
43217;BME280;71549;42.686;23.300;2023-10-09T08:17:19;95565.53;;;25.42;26.74
43217;BME280;71549;42.686;23.300;2023-10-09T08:19:23;95531.03;;;25.15;26.48
43217;BME280;71549;42.686;23.300;2023-10-09T08:21:32;95390.81;;;24.18;26.44
43217;BME280;71549;42.686;23.300;2023-10-09T08:23:42;95562.97;;;25.34;26.15
43217;BME280;71549;42.686;23.300;2023-10-09T08:25:48;95515.03;;;24.97;26.04
43217;BME280;71549;42.686;23.300;2023-10-09T08:28:12;95481.09;;;24.88;26.23
43217;BME280;71549;42.686;23.300;2023-10-09T08:30:31;95559.88;;;25.48;26.57
43217;BME280;71549;42.686;23.300;2023-10-09T08:32:48;95554.72;;;25.42;26.13
43217;BME280;71549;42.686;23.300;2023-10-09T08:35:03;95558.66;;;25.45;26.40
43217;BME280;71549;42.686;23.300;2023-10-09T08:37:06;95548.94;;;25.44;26.11
43217;BME280;71549;42.686;23.300;2023-10-09T08:39:11;95507.00;;;25.25;26.23
43217;BME280;71549;42.686;23.300;2023-10-09T08:41:25;95536.38;;;25.52;26.13
43217;BME280;71549;42.686;23.300;2023-10-09T08:43:33;95535.84;;;25.46;26.10
43217;BME280;71549;42.686;23.300;2023-10-09T08:45:38;95533.91;;;25.46;26.21
43217;BME280;71549;42.686;23.300;2023-10-09T08:47:42;95524.41;;;25.53;26.39
43217;BME280;71549;42.686;23.300;2023-10-09T08:49:43;95488.81;;;25.26;26.46
43217;BME280;71549;42.686;23.300;2023-10-09T08:51:44;95529.06;;;25.52;26.10
43217;BME280;71549;42.686;23.300;2023-10-09T08:53:46;95495.41;;;25.41;26.20
43217;BME280;71549;42.686;23.300;2023-10-09T08:55:48;95506.25;;;25.41;26.27
43217;BME280;71549;42.686;23.300;2023-10-09T08:57:48;95485.84;;;25.31;26.08
43217;BME280;71549;42.686;23.300;2023-10-09T08:59:52;95492.81;;;25.44;26.21
43217;BME280;71549;42.686;23.300;2023-10-09T09:01:53;95522.16;;;25.55;25.88
43217;BME280;71549;42.686;23.300;2023-10-09T09:03:54;95477.84;;;25.35;26.01
43217;BME280;71549;42.686;23.300;2023-10-09T09:05:59;95518.66;;;25.54;25.83
43217;BME280;71549;42.686;23.300;2023-10-09T09:08:03;95490.69;;;25.38;26.20
43217;BME280;71549;42.686;23.300;2023-10-09T09:10:04;95467.59;;;25.28;26.23
43217;BME280;71549;42.686;23.300;2023-10-09T09:12:17;95519.78;;;25.53;26.26
43217;BME280;71549;42.686;23.300;2023-10-09T09:14:17;95477.19;;;25.25;25.86
43217;BME280;71549;42.686;23.300;2023-10-09T09:16:23;95439.31;;;25.01;26.12
43217;BME280;71549;42.686;23.300;2023-10-09T09:18:30;95362.50;;;24.53;26.34
43217;BME280;71549;42.686;23.300;2023-10-09T09:20:37;95392.88;;;24.74;26.14
43217;BME280;71549;42.686;23.300;2023-10-09T09:22:52;95515.69;;;25.59;26.19
43217;BME280;71549;42.686;23.300;2023-10-09T09:24:59;95481.31;;;25.35;26.08
43217;BME280;71549;42.686;23.300;2023-10-09T09:27:09;95478.16;;;25.33;25.90
43217;BME280;71549;42.686;23.300;2023-10-09T09:29:13;95506.22;;;25.53;25.59
43217;BME280;71549;42.686;23.300;2023-10-09T09:31:14;95507.38;;;25.68;25.90
43217;BME280;71549;42.686;23.300;2023-10-09T09:33:27;95506.59;;;25.67;25.77
43217;BME280;71549;42.686;23.300;2023-10-09T09:35:39;95498.47;;;25.67;26.03
43217;BME280;71549;42.686;23.300;2023-10-09T09:37:55;95498.47;;;25.67;25.78
43217;BME280;71549;42.686;23.300;2023-10-09T09:40:03;95454.00;;;25.40;25.48
43217;BME280;71549;42.686;23.300;2023-10-09T09:42:28;95491.03;;;25.64;25.43
43217;BME280;71549;42.686;23.300;2023-10-09T09:44:32;95490.69;;;25.66;25.33
43217;BME280;71549;42.686;23.300;2023-10-09T09:46:34;95486.19;;;25.58;25.37
43217;BME280;71549;42.686;23.300;2023-10-09T09:48:38;95492.16;;;25.63;25.41
43217;BME280;71549;42.686;23.300;2023-10-09T09:50:39;95489.91;;;25.65;24.79
43217;BME280;71549;42.686;23.300;2023-10-09T09:52:47;95478.88;;;25.58;25.04
43217;BME280;71549;42.686;23.300;2023-10-09T09:57:02;95480.66;;;25.66;25.32
43217;BME280;71549;42.686;23.300;2023-10-09T09:59:09;95422.19;;;25.25;25.08
43217;BME280;71549;42.686;23.300;2023-10-09T10:01:14;95463.50;;;25.62;25.33
43217;BME280;71549;42.686;23.300;2023-10-09T10:03:19;95326.97;;;24.82;25.81
43217;BME280;71549;42.686;23.300;2023-10-09T10:05:21;95461.13;;;25.61;25.17
43217;BME280;71549;42.686;23.300;2023-10-09T10:07:23;95461.22;;;25.64;25.16
43217;BME280;71549;42.686;23.300;2023-10-09T10:09:42;95454.56;;;25.62;24.44
43217;BME280;71549;42.686;23.300;2023-10-09T10:11:48;95438.00;;;25.51;24.70
43217;BME280;71549;42.686;23.300;2023-10-09T10:16:06;95447.91;;;25.59;24.57
43217;BME280;71549;42.686;23.300;2023-10-09T10:18:13;95442.38;;;25.56;25.18
43217;BME280;71549;42.686;23.300;2023-10-09T10:20:19;95387.78;;;25.25;25.07
43217;BME280;71549;42.686;23.300;2023-10-09T10:22:29;95352.28;;;25.02;24.65
43217;BME280;71549;42.686;23.300;2023-10-09T10:29:19;95406.81;;;25.73;24.93
43217;BME280;71549;42.686;23.300;2023-10-09T10:31:58;95407.16;;;25.72;24.92
43217;BME280;71549;42.686;23.300;2023-10-09T10:34:26;95399.91;;;25.76;25.28
43217;BME280;71549;42.686;23.300;2023-10-09T10:36:29;95356.34;;;25.53;25.29
43217;BME280;71549;42.686;23.300;2023-10-09T10:38:39;95373.84;;;25.71;25.24
43217;BME280;71549;42.686;23.300;2023-10-09T10:40:48;95381.22;;;25.71;25.06
43217;BME280;71549;42.686;23.300;2023-10-09T10:42:57;95367.22;;;25.69;25.34
43217;BME280;71549;42.686;23.300;2023-10-09T10:45:17;95374.66;;;25.88;25.64
43217;BME280;71549;42.686;23.300;2023-10-09T10:47:34;95365.53;;;25.80;25.38
43217;BME280;71549;42.686;23.300;2023-10-09T10:49:43;95381.56;;;25.85;25.43
43217;BME280;71549;42.686;23.300;2023-10-09T10:51:43;95347.09;;;25.70;25.57
43217;BME280;71549;42.686;23.300;2023-10-09T10:53:52;95361.44;;;25.86;25.54
43217;BME280;71549;42.686;23.300;2023-10-09T10:55:55;95370.00;;;25.88;25.55
43217;BME280;71549;42.686;23.300;2023-10-09T10:57:56;95364.56;;;25.88;26.03
43217;BME280;71549;42.686;23.300;2023-10-09T11:00:14;95366.31;;;25.80;25.20
43217;BME280;71549;42.686;23.300;2023-10-09T11:02:34;95350.91;;;25.84;25.21
43217;BME280;71549;42.686;23.300;2023-10-09T11:04:37;95355.13;;;25.82;25.17
43217;BME280;71549;42.686;23.300;2023-10-09T11:06:39;95339.81;;;25.74;25.13
43217;BME280;71549;42.686;23.300;2023-10-09T11:08:46;95365.47;;;25.92;25.18
43217;BME280;71549;42.686;23.300;2023-10-09T11:11:10;95324.00;;;25.76;25.74
43217;BME280;71549;42.686;23.300;2023-10-09T11:13:21;95344.66;;;25.96;25.58
43217;BME280;71549;42.686;23.300;2023-10-09T11:15:35;95241.31;;;25.34;25.70